Airfield :







YOU CAN JOIN US ON...

 
LOGIN :

Register | Disclaimer

   EN    FR    IT 

 









Legend :    VFR   Marginal VFR   IFR   Intensive IFR   Very Intensive IFR
Visi :
Ceiling :
>= 8 km
>= 3000ft
5 to 8 km
1000 to 3000 ft
1500m to 5 km
500 to 1000 ft
800 to 1500m
200 to 500 ft
< 800m
< 200 ft
Symbols :   Thunderstorms  Fog  Heavy snow  Heavy precipitations  Wind > 20 kt







- Airport Elevation : 1808 ft
- IATA code : YWK


CYWK - Wabush

CURRENT METAR :
  • 201900Z 27009KT 15SM -SHRA SCT033 BKN047 17/11 A2951 RMK CU3SC3 SLP001 DENSITY ALT 2900FT

EXPIRED METARs :
  • 201800Z 26013G21KT 12SM -SHRA BKN026 OVC034 15/11 A2952 RMK CU5SC3 SLP005 DENSITY ALT 2700FT
  • 201700Z 29009KT 230V300 15SM -SHRA BKN027 BKN033 15/11 A2951 RMK CU5CU2 SLP003 DENSITY ALT 2700FT
  • 201648Z 25010KT 15SM -SHRA OVC032 16/09 A2951 RMK CU8 SLP001 DENSITY ALT 2800FT

TAF TAF CYWK
Valid from the 20 at 14:00 until the 21 at 02:00 UTC


201339Z 2014/2102 22008KT P6SM -SHRA BKN006 OVC040
TEMPO 2014/2016 P6SM NSW SCT006 OVC030
FM201600 24012G22KT P6SM BKN030
TEMPO 2016/2021 6SM -RA BR BKN020
BECMG 2016/2018 27015G25KT
FM202100 28012G22KT P6SM BKN025
BECMG 2023/2101 29008KT RMK NXT FCST BY 202000Z
CZUL FIR / North America



MET'MAP, your aeronautical weather chart ! - Copyright ORBIFLY December 2007 - Disclaimer

ORBIFLY MET'MAP TEAM :

Programming & Development : Alexandra Zaïnal
Concept & Development : Baudouin d'Aumeries
Co-Development & Prog : Marc-Olivier Méhu
Technical & hardware support : Manuel Goepfert

Contact : metmap@orbifly.com




SOURCES & CREDITS :

   NOAA